createdAt,value
2023-12-09T00:01:59.081Z,25.65
2023-12-09T00:04:26.909Z,23.67
2023-12-09T00:06:54.753Z,23.75
2023-12-09T00:09:22.450Z,26.27
2023-12-09T00:11:53.623Z,23.35
2023-12-09T00:14:31.306Z,25.52
2023-12-09T00:17:02.513Z,24.15
2023-12-09T00:19:30.875Z,24.77
2023-12-09T00:21:58.656Z,19.83
2023-12-09T00:24:26.328Z,23.50
2023-12-09T00:26:54.007Z,24.70
2023-12-09T00:29:21.647Z,32.10
2023-12-09T00:31:49.348Z,25.42
2023-12-09T00:34:16.905Z,25.75
2023-12-09T00:37:22.216Z,28.88
2023-12-09T00:39:49.752Z,28.20
2023-12-09T00:42:17.434Z,30.38
2023-12-09T00:44:45.125Z,30.05
2023-12-09T00:47:12.891Z,29.77
2023-12-09T00:49:40.949Z,30.30
2023-12-09T00:52:08.933Z,29.23
2023-12-09T00:54:36.573Z,27.90
2023-12-09T00:57:04.770Z,31.58
2023-12-09T00:59:32.543Z,28.63
2023-12-09T01:02:00.408Z,31.63
2023-12-09T01:04:28.245Z,28.67
2023-12-09T01:06:57.150Z,29.40
2023-12-09T01:09:27.672Z,29.58
2023-12-09T01:11:55.587Z,25.75
2023-12-09T01:14:26.082Z,23.38
2023-12-09T01:16:54.016Z,27.45
2023-12-09T01:19:27.353Z,22.48
2023-12-09T01:21:58.080Z,27.00
2023-12-09T01:24:26.076Z,25.92
2023-12-09T01:26:53.787Z,23.50
2023-12-09T01:29:26.958Z,21.45
2023-12-09T01:31:54.759Z,25.10
2023-12-09T01:34:31.578Z,27.98
2023-12-09T01:37:04.130Z,23.10
2023-12-09T01:39:31.675Z,23.13
2023-12-09T01:41:59.342Z,27.70
2023-12-09T01:44:26.980Z,23.73
2023-12-09T01:46:55.172Z,18.70
2023-12-09T01:49:23.112Z,20.95
2023-12-09T01:51:51.605Z,18.50
2023-12-09T01:54:21.417Z,23.90
2023-12-09T01:56:49.379Z,20.67
2023-12-09T01:59:18.881Z,22.50
2023-12-09T02:01:47.814Z,23.90
2023-12-09T02:04:20.501Z,23.20
2023-12-09T02:06:48.533Z,22.95
2023-12-09T02:09:18.177Z,19.45
2023-12-09T02:12:27.316Z,19.92
2023-12-09T02:15:05.291Z,19.20
2023-12-09T02:17:43.885Z,18.55
2023-12-09T02:20:15.359Z,23.45
2023-12-09T02:22:43.127Z,24.30
2023-12-09T02:25:11.120Z,32.03
2023-12-09T02:27:47.207Z,25.25
2023-12-09T02:30:44.384Z,22.15
2023-12-09T02:33:14.554Z,22.75
2023-12-09T02:35:45.521Z,24.45
2023-12-09T02:38:15.031Z,21.63
2023-12-09T02:40:43.622Z,25.23
2023-12-09T02:43:11.580Z,23.30
2023-12-09T02:45:42.364Z,19.75
2023-12-09T02:48:10.557Z,20.17
2023-12-09T02:50:40.941Z,20.58
2023-12-09T02:53:09.153Z,22.77
2023-12-09T02:55:40.640Z,20.70
2023-12-09T02:58:16.414Z,17.30
2023-12-09T03:00:51.677Z,18.20
2023-12-09T03:03:23.902Z,20.67
2023-12-09T03:05:52.236Z,18.55
2023-12-09T03:08:33.128Z,19.27
2023-12-09T03:11:24.812Z,21.52
2023-12-09T03:13:53.905Z,17.80
2023-12-09T03:16:23.877Z,20.80
2023-12-09T03:18:56.582Z,19.63
2023-12-09T03:21:24.375Z,22.33
2023-12-09T03:23:57.261Z,17.80
2023-12-09T03:26:29.298Z,21.35
2023-12-09T03:28:57.222Z,18.38
2023-12-09T03:31:28.816Z,16.27
2023-12-09T03:34:02.352Z,22.88
2023-12-09T03:36:32.710Z,21.77
2023-12-09T03:39:03.680Z,19.52
2023-12-09T03:41:39.396Z,17.40
2023-12-09T03:44:20.636Z,19.17
2023-12-09T03:51:54.915Z,19.23
2023-12-09T03:54:31.715Z,15.90
2023-12-09T03:57:06.331Z,16.92
2023-12-09T03:59:34.207Z,18.17
2023-12-09T04:02:02.179Z,17.55
2023-12-09T04:04:33.193Z,15.02
2023-12-09T04:10:56.772Z,19.63
2023-12-09T04:13:48.076Z,17.67
2023-12-09T04:16:21.872Z,14.77
2023-12-09T04:18:49.795Z,14.68
2023-12-09T04:21:23.136Z,17.80
2023-12-09T04:23:58.101Z,15.75
2023-12-09T04:27:04.883Z,16.65
2023-12-09T04:33:47.424Z,15.05
2023-12-09T04:36:24.594Z,16.90
2023-12-09T04:39:18.287Z,15.45
2023-12-09T04:43:05.786Z,13.93
2023-12-09T04:45:34.389Z,14.50
2023-12-09T04:51:27.614Z,20.48
2023-12-09T04:53:55.431Z,18.02
2023-12-09T05:00:50.353Z,19.88
2023-12-09T05:03:19.512Z,17.85
2023-12-09T05:05:50.355Z,17.42
2023-12-09T05:08:33.398Z,15.25
2023-12-09T05:11:14.819Z,15.02
2023-12-09T05:15:24.121Z,18.52
2023-12-09T05:17:58.334Z,19.45
2023-12-09T05:20:52.949Z,16.45
2023-12-09T05:23:59.914Z,13.23
2023-12-09T05:27:03.161Z,15.90
2023-12-09T05:32:40.918Z,12.90
2023-12-09T05:35:19.485Z,12.13
2023-12-09T05:38:08.866Z,14.93
2023-12-09T05:40:49.620Z,15.70
2023-12-09T05:43:30.275Z,15.18
2023-12-09T05:46:27.125Z,12.82
2023-12-09T05:49:11.366Z,12.93
2023-12-09T05:51:46.881Z,12.05
2023-12-09T05:54:45.081Z,16.35
2023-12-09T05:57:23.968Z,15.05
2023-12-09T06:00:03.871Z,13.73
2023-12-09T06:02:37.960Z,15.13
2023-12-09T06:05:14.034Z,21.15
2023-12-09T06:07:41.692Z,14.20
2023-12-09T06:10:09.650Z,17.15
2023-12-09T06:12:37.462Z,20.33
2023-12-09T06:15:07.067Z,25.88
2023-12-09T06:17:37.288Z,31.75
2023-12-09T06:20:08.378Z,32.30
2023-12-09T06:22:36.137Z,26.00
2023-12-09T06:25:44.721Z,29.58
2023-12-09T06:28:47.352Z,32.95
2023-12-09T06:31:13.110Z,28.60
2023-12-09T06:33:45.050Z,30.05
2023-12-09T06:36:20.734Z,28.30
2023-12-09T06:42:09.516Z,34.63
2023-12-09T06:44:41.772Z,27.35
2023-12-09T06:47:12.848Z,22.38
2023-12-09T06:49:40.750Z,24.45
2023-12-09T06:52:08.448Z,21.52
2023-12-09T06:54:36.467Z,22.60
2023-12-09T06:57:14.926Z,20.48
2023-12-09T06:59:42.691Z,27.88
2023-12-09T07:02:21.645Z,18.15
2023-12-09T07:04:49.687Z,15.63
2023-12-09T07:07:22.760Z,14.80
2023-12-09T07:09:56.501Z,14.90
2023-12-09T07:12:27.159Z,19.55
2023-12-09T07:14:55.284Z,13.38
2023-12-09T07:17:25.441Z,13.10
2023-12-09T07:19:54.221Z,14.05
2023-12-09T07:22:22.797Z,13.80
2023-12-09T07:24:53.387Z,13.80
2023-12-09T07:27:21.042Z,14.57
2023-12-09T07:29:48.651Z,15.15
2023-12-09T07:32:17.561Z,13.30
2023-12-09T07:34:46.868Z,17.35
2023-12-09T07:37:16.131Z,18.40
2023-12-09T07:39:43.872Z,16.92
2023-12-09T07:42:11.659Z,17.50
2023-12-09T07:44:39.333Z,18.95
2023-12-09T07:47:06.932Z,17.45
2023-12-09T07:49:34.758Z,19.42
2023-12-09T07:52:06.963Z,20.08
2023-12-09T07:54:49.930Z,21.98
2023-12-09T07:57:18.587Z,18.38
2023-12-09T07:59:46.188Z,17.55
2023-12-09T08:02:23.552Z,17.95
2023-12-09T08:05:03.329Z,17.45
2023-12-09T08:07:45.782Z,17.95
2023-12-09T08:10:22.683Z,17.50
2023-12-09T08:13:01.310Z,20.70
2023-12-09T08:15:29.095Z,18.95
2023-12-09T08:17:56.877Z,19.35
2023-12-09T08:20:25.107Z,17.58
2023-12-09T08:22:52.715Z,17.20
2023-12-09T08:25:20.305Z,17.52
2023-12-09T08:27:47.907Z,17.33
2023-12-09T08:30:15.657Z,18.83
2023-12-09T08:32:43.670Z,18.58
2023-12-09T08:35:12.249Z,18.85
2023-12-09T08:37:40.544Z,20.90
2023-12-09T08:40:14.380Z,18.20
2023-12-09T08:42:45.796Z,22.30
2023-12-09T08:45:17.102Z,19.70
2023-12-09T08:47:45.763Z,22.20
2023-12-09T08:52:45.523Z,27.70
2023-12-09T08:55:13.178Z,22.75
2023-12-09T08:57:40.838Z,22.25
2023-12-09T09:00:09.818Z,20.00
2023-12-09T09:02:38.097Z,22.67
2023-12-09T09:05:06.282Z,18.23
2023-12-09T09:07:37.761Z,18.48
2023-12-09T09:10:05.845Z,20.73
2023-12-09T09:12:33.520Z,17.30
2023-12-09T09:15:04.628Z,17.08
2023-12-09T09:17:36.656Z,18.92
2023-12-09T09:20:07.057Z,19.02
2023-12-09T09:22:35.472Z,20.45
2023-12-09T09:25:03.750Z,16.10
2023-12-09T09:27:31.979Z,19.50
2023-12-09T09:29:59.747Z,18.55
2023-12-09T09:32:31.044Z,16.98
2023-12-09T09:34:58.990Z,18.95
2023-12-09T09:37:26.814Z,20.10
2023-12-09T09:39:54.645Z,18.23
2023-12-09T09:42:34.373Z,18.67
2023-12-09T09:45:11.338Z,16.35
2023-12-09T09:47:39.259Z,19.25
2023-12-09T09:50:09.777Z,20.88
2023-12-09T09:52:38.769Z,20.30
2023-12-09T09:55:09.694Z,21.38
2023-12-09T09:57:38.462Z,21.00
2023-12-09T10:00:16.026Z,21.88
2023-12-09T10:02:47.735Z,22.90
2023-12-09T10:05:17.737Z,24.63
2023-12-09T10:07:46.124Z,25.27
2023-12-09T10:10:15.268Z,23.92
2023-12-09T10:12:44.137Z,27.85
2023-12-09T10:15:17.264Z,31.02
2023-12-09T10:17:45.381Z,28.33
2023-12-09T10:20:13.365Z,23.88
2023-12-09T10:22:41.654Z,27.15
2023-12-09T10:25:09.553Z,23.98
2023-12-09T10:27:37.229Z,20.95
2023-12-09T10:30:07.081Z,23.35
2023-12-09T10:32:35.218Z,23.90
2023-12-09T10:35:05.436Z,22.38
2023-12-09T10:37:34.268Z,21.52
2023-12-09T10:40:07.964Z,22.27
2023-12-09T10:42:39.021Z,23.45
2023-12-09T10:45:09.337Z,21.55
2023-12-09T10:47:37.318Z,21.10
2023-12-09T10:50:05.996Z,20.20
2023-12-09T10:52:35.875Z,22.90
2023-12-09T10:55:05.456Z,24.08
2023-12-09T10:57:34.900Z,19.80
2023-12-09T11:00:11.182Z,21.65
2023-12-09T11:02:42.273Z,18.00
2023-12-09T11:05:12.793Z,38.08
2023-12-09T11:07:41.601Z,21.35
2023-12-09T11:10:12.566Z,23.70
2023-12-09T11:12:42.230Z,22.88
2023-12-09T11:15:17.143Z,22.25
2023-12-09T11:17:46.401Z,20.55
2023-12-09T11:20:20.752Z,23.58
2023-12-09T11:22:49.207Z,20.15
2023-12-09T11:25:27.085Z,23.35
2023-12-09T11:27:55.067Z,22.10
2023-12-09T11:30:37.987Z,20.27
2023-12-09T11:33:06.533Z,24.50
2023-12-09T11:35:38.657Z,24.10
2023-12-09T11:38:08.791Z,26.67
2023-12-09T11:40:38.973Z,26.42
2023-12-09T11:43:09.569Z,22.70
2023-12-09T11:45:40.365Z,23.63
2023-12-09T11:48:10.192Z,26.90
2023-12-09T11:50:40.710Z,27.52
2023-12-09T11:53:08.336Z,29.10
2023-12-09T11:55:36.048Z,24.13
2023-12-09T11:58:04.951Z,26.17
2023-12-09T12:00:32.567Z,28.20
2023-12-09T12:03:00.912Z,28.30
2023-12-09T12:06:07.548Z,28.27
2023-12-09T12:08:35.382Z,26.80
2023-12-09T12:11:04.635Z,25.67
2023-12-09T12:13:33.480Z,28.50
2023-12-09T12:16:04.920Z,22.98
2023-12-09T12:18:34.009Z,24.70
2023-12-09T12:21:02.317Z,26.77
2023-12-09T12:23:33.050Z,21.40
2023-12-09T12:26:22.418Z,21.55
2023-12-09T12:28:52.956Z,20.13
2023-12-09T12:31:21.953Z,24.90
2023-12-09T12:33:49.811Z,19.73
2023-12-09T12:36:36.818Z,18.83
2023-12-09T12:39:07.340Z,20.92
2023-12-09T12:41:35.035Z,18.27
2023-12-09T12:44:02.781Z,19.20
2023-12-09T12:46:50.688Z,22.00
2023-12-09T12:49:18.407Z,22.08
2023-12-09T12:51:46.268Z,28.23
2023-12-09T12:54:14.109Z,32.40
2023-12-09T12:56:43.023Z,35.13
2023-12-09T12:59:13.859Z,32.67
2023-12-09T13:01:41.479Z,30.88
2023-12-09T13:04:10.117Z,35.53
2023-12-09T13:06:37.827Z,35.38
2023-12-09T13:09:05.863Z,35.70
2023-12-09T13:11:33.677Z,39.10
2023-12-09T13:14:01.451Z,35.45
2023-12-09T13:16:29.278Z,35.40
2023-12-09T13:18:57.036Z,36.17
2023-12-09T13:21:24.740Z,35.13
2023-12-09T13:23:52.951Z,38.80
2023-12-09T13:26:20.918Z,38.00
2023-12-09T13:28:48.565Z,32.85
2023-12-09T13:31:20.030Z,35.38
2023-12-09T13:33:48.467Z,35.50
2023-12-09T13:36:17.745Z,38.17
2023-12-09T13:38:45.791Z,38.67
2023-12-09T13:41:14.644Z,39.78
2023-12-09T13:43:43.956Z,39.83
2023-12-09T13:46:11.707Z,39.47
2023-12-09T13:48:42.370Z,39.95
2023-12-09T13:51:13.223Z,35.15
2023-12-09T14:03:12.679Z,33.58
2023-12-09T14:05:40.833Z,35.22
2023-12-09T14:08:08.829Z,37.10
2023-12-09T14:10:36.661Z,34.90
2023-12-09T14:13:04.336Z,37.67
2023-12-09T14:15:33.270Z,36.67
2023-12-09T14:18:01.187Z,40.28
2023-12-09T14:20:29.620Z,41.83
2023-12-09T14:22:58.071Z,40.75
2023-12-09T14:25:44.711Z,41.60
2023-12-09T14:28:12.461Z,41.03
2023-12-09T14:30:40.172Z,42.63
2023-12-09T14:33:07.930Z,43.53
2023-12-09T14:35:35.919Z,48.35
2023-12-09T14:38:04.590Z,44.78
2023-12-09T14:40:32.466Z,49.00
2023-12-09T14:43:07.687Z,47.38
2023-12-09T14:45:37.565Z,49.35
2023-12-09T14:48:08.140Z,48.00
2023-12-09T14:50:36.508Z,53.75
2023-12-09T14:53:04.220Z,49.55
2023-12-09T14:55:55.327Z,52.72
2023-12-09T14:58:23.045Z,52.30
2023-12-09T15:00:51.432Z,55.80
2023-12-09T15:03:19.464Z,52.67
2023-12-09T15:05:50.788Z,53.78
2023-12-09T15:08:23.564Z,56.60
2023-12-09T15:10:53.853Z,51.78
2023-12-09T15:13:24.684Z,58.22
2023-12-09T15:15:52.990Z,53.40
2023-12-09T15:18:23.251Z,54.10
2023-12-09T15:20:52.391Z,59.85
2023-12-09T15:23:23.011Z,52.60
2023-12-09T15:25:53.890Z,53.35
2023-12-09T15:28:22.103Z,54.88
2023-12-09T15:30:51.584Z,58.80
2023-12-09T15:33:19.950Z,51.70
2023-12-09T15:35:49.023Z,51.03
2023-12-09T15:38:16.690Z,49.85
2023-12-09T15:40:45.581Z,53.15
2023-12-09T15:43:14.356Z,58.60
2023-12-09T15:45:43.785Z,51.65
2023-12-09T15:48:15.385Z,57.33
2023-12-09T15:50:46.188Z,58.55
2023-12-09T15:53:14.081Z,61.42
2023-12-09T15:55:41.826Z,55.63
2023-12-09T15:58:09.801Z,54.92
2023-12-09T16:00:42.310Z,57.63
2023-12-09T16:03:16.917Z,57.58
2023-12-09T16:05:44.986Z,61.63
2023-12-09T16:08:12.860Z,58.42
2023-12-09T16:10:40.767Z,54.15
2023-12-09T16:13:09.284Z,60.22
2023-12-09T16:15:37.717Z,57.00
2023-12-09T16:18:08.041Z,60.00
2023-12-09T16:20:35.759Z,64.88
2023-12-09T16:23:03.404Z,58.65
2023-12-09T16:25:31.283Z,56.35
2023-12-09T16:27:59.106Z,58.42
2023-12-09T16:30:26.786Z,55.97
2023-12-09T16:32:54.556Z,57.85
2023-12-09T16:35:22.476Z,55.90
2023-12-09T16:37:50.572Z,53.20
2023-12-09T16:40:18.284Z,56.22
2023-12-09T16:42:46.009Z,59.10
2023-12-09T16:45:15.146Z,56.50
2023-12-09T16:47:46.333Z,52.75
2023-12-09T16:50:15.111Z,50.08
2023-12-09T16:52:44.062Z,57.90
2023-12-09T16:55:11.909Z,53.65
2023-12-09T16:57:40.156Z,52.33
2023-12-09T17:00:08.568Z,58.28
2023-12-09T17:03:24.416Z,57.58
2023-12-09T17:06:16.124Z,56.80
2023-12-09T17:08:43.901Z,58.78
2023-12-09T17:11:11.754Z,59.58
2023-12-09T17:13:39.372Z,51.28
2023-12-09T17:16:07.643Z,56.05
2023-12-09T17:18:35.364Z,54.13
2023-12-09T17:21:03.856Z,53.65
2023-12-09T17:23:37.794Z,58.25
2023-12-09T17:26:07.943Z,59.13
2023-12-09T17:28:38.129Z,62.22
2023-12-09T17:31:07.083Z,61.03
2023-12-09T17:33:35.021Z,65.25
2023-12-09T17:36:02.894Z,53.60
2023-12-09T17:38:30.897Z,62.35
2023-12-09T17:40:59.034Z,56.40
2023-12-09T17:43:27.438Z,57.72
2023-12-09T17:45:55.477Z,52.22
2023-12-09T17:48:25.172Z,56.28
2023-12-09T17:50:56.167Z,53.85
2023-12-09T17:53:26.666Z,63.30
2023-12-09T17:56:03.970Z,65.05
2023-12-09T17:58:31.682Z,64.15
2023-12-09T18:01:03.276Z,65.97
2023-12-09T18:03:31.061Z,71.70
2023-12-09T18:06:11.678Z,72.28
2023-12-09T18:11:09.722Z,79.00
2023-12-09T18:13:40.688Z,73.03
2023-12-09T18:16:10.022Z,71.45
2023-12-09T18:18:38.144Z,72.97
2023-12-09T18:21:06.093Z,73.85
2023-12-09T18:23:33.647Z,68.63
2023-12-09T18:26:03.950Z,77.70
2023-12-09T18:28:38.912Z,79.43
2023-12-09T18:31:07.464Z,72.63
2023-12-09T18:33:38.410Z,73.95
2023-12-09T18:36:07.850Z,76.43
2023-12-09T18:38:35.462Z,72.57
2023-12-09T18:41:04.366Z,71.45
2023-12-09T18:43:33.932Z,72.95
2023-12-09T18:46:05.215Z,77.28
2023-12-09T18:48:33.246Z,73.63
2023-12-09T18:51:01.782Z,73.50
2023-12-09T18:53:30.563Z,79.07
2023-12-09T18:55:58.452Z,84.65
2023-12-09T18:58:28.034Z,84.72
2023-12-09T19:01:04.801Z,75.25
2023-12-09T19:03:38.281Z,76.80
2023-12-09T19:06:06.441Z,74.07
2023-12-09T19:08:34.061Z,66.80
2023-12-09T19:11:01.732Z,75.93
2023-12-09T19:13:29.459Z,76.68
2023-12-09T19:15:57.481Z,71.28
2023-12-09T19:18:25.296Z,78.75
2023-12-09T19:20:52.977Z,73.30
2023-12-09T19:23:20.639Z,76.25
2023-12-09T19:25:48.314Z,80.38
2023-12-09T19:28:16.361Z,76.15
2023-12-09T19:30:44.231Z,60.40
2023-12-09T19:33:12.031Z,60.40
2023-12-09T19:35:39.764Z,63.80
2023-12-09T19:38:07.691Z,54.65
2023-12-09T19:40:39.208Z,62.58
2023-12-09T19:43:12.793Z,63.80
2023-12-09T19:46:00.355Z,65.05
2023-12-09T19:48:39.610Z,70.47
2023-12-09T19:51:07.987Z,80.63
2023-12-09T19:53:46.144Z,66.20
2023-12-09T19:56:19.805Z,79.03
2023-12-09T19:58:50.787Z,82.50
2023-12-09T20:01:24.272Z,76.47
2023-12-09T20:03:53.197Z,81.05
2023-12-09T20:06:21.245Z,74.53
2023-12-09T20:09:03.217Z,74.75
2023-12-09T20:14:27.262Z,68.45
2023-12-09T20:17:01.137Z,67.32
2023-12-09T20:19:56.509Z,70.93
2023-12-09T20:22:28.176Z,69.60
2023-12-09T20:25:02.191Z,66.88
2023-12-09T20:27:32.040Z,67.60
2023-12-09T20:30:11.064Z,66.57
2023-12-09T20:32:55.994Z,72.63
2023-12-09T20:35:39.722Z,69.35
2023-12-09T20:38:33.844Z,69.18
2023-12-09T20:41:15.351Z,68.07
2023-12-09T20:46:44.796Z,70.60
2023-12-09T20:49:22.405Z,74.50
2023-12-09T20:51:53.635Z,71.03
2023-12-09T20:54:24.973Z,80.43
2023-12-09T20:57:05.046Z,68.85
2023-12-09T20:59:33.046Z,80.35
2023-12-09T21:02:00.871Z,75.75
2023-12-09T21:04:28.498Z,82.45
2023-12-09T21:06:56.324Z,83.88
2023-12-09T21:09:24.413Z,87.82
2023-12-09T21:11:53.475Z,90.43
2023-12-09T21:14:21.722Z,87.85
2023-12-09T21:16:52.655Z,90.50
2023-12-09T21:19:20.647Z,94.32
2023-12-09T21:21:54.640Z,91.78
2023-12-09T21:24:22.621Z,93.18
2023-12-09T21:26:50.241Z,88.15
2023-12-09T21:29:17.996Z,97.15
2023-12-09T21:31:48.415Z,95.38
2023-12-09T21:34:18.288Z,91.35
2023-12-09T21:36:46.602Z,89.63
2023-12-09T21:39:17.719Z,86.13
2023-12-09T21:41:48.234Z,95.68
2023-12-09T21:44:15.845Z,88.90
2023-12-09T21:46:46.518Z,86.03
2023-12-09T21:49:17.382Z,82.13
2023-12-09T21:51:48.278Z,87.95
2023-12-09T21:54:19.121Z,87.75
2023-12-09T21:56:57.703Z,86.40
2023-12-09T21:59:47.536Z,89.25
2023-12-09T22:02:33.673Z,82.32
2023-12-09T22:05:30.948Z,86.47
2023-12-09T22:08:09.334Z,91.00
2023-12-09T22:10:56.449Z,91.70
2023-12-09T22:17:23.503Z,93.30
2023-12-09T22:20:37.637Z,92.63
2023-12-09T22:23:09.741Z,92.88
2023-12-09T22:25:43.884Z,97.68
2023-12-09T22:28:24.379Z,89.47
2023-12-09T22:30:55.078Z,90.85
2023-12-09T22:52:01.712Z,86.65
